createdAt,value
2019-03-10T00:00:31.808Z,1.40
2019-03-10T00:03:00.831Z,1.13
2019-03-10T00:05:30.091Z,2.67
2019-03-10T00:07:59.680Z,1.33
2019-03-10T00:10:28.649Z,1.30
2019-03-10T00:12:57.782Z,7.03
2019-03-10T00:15:26.866Z,1.53
2019-03-10T00:17:55.860Z,1.53
2019-03-10T00:20:24.921Z,1.83
2019-03-10T00:22:54.087Z,1.70
2019-03-10T00:25:22.928Z,3.27
2019-03-10T00:27:51.817Z,2.23
2019-03-10T00:30:20.715Z,2.93
2019-03-10T00:32:50.398Z,2.30
2019-03-10T00:35:19.420Z,1.77
2019-03-10T00:37:49.453Z,5.53
2019-03-10T00:40:47.921Z,1.30
2019-03-10T00:43:42.616Z,2.03
2019-03-10T00:46:30.947Z,1.53
2019-03-10T00:49:30.882Z,3.17
2019-03-10T00:52:08.990Z,2.97
2019-03-10T00:54:37.880Z,1.23
2019-03-10T00:57:06.979Z,1.23
2019-03-10T00:59:35.857Z,1.90
2019-03-10T01:02:04.756Z,2.60
2019-03-10T01:04:33.647Z,2.20
2019-03-10T01:07:03.758Z,7.23
2019-03-10T01:09:33.409Z,3.13
2019-03-10T01:12:03.881Z,1.63
2019-03-10T01:14:33.101Z,2.30
2019-03-10T01:17:03.481Z,5.00
2019-03-10T01:19:33.648Z,3.27
2019-03-10T01:22:02.876Z,4.43
2019-03-10T01:24:31.527Z,2.50
2019-03-10T01:27:00.116Z,3.17
2019-03-10T01:29:28.558Z,1.20
2019-03-10T01:32:13.599Z,1.23
2019-03-10T01:34:58.646Z,2.90
2019-03-10T01:37:27.218Z,2.03
2019-03-10T01:39:55.701Z,1.43
2019-03-10T01:42:24.143Z,3.47
2019-03-10T01:44:52.622Z,3.00
2019-03-10T01:47:21.075Z,2.20
2019-03-10T01:49:49.532Z,6.10
2019-03-10T01:52:18.014Z,1.93
2019-03-10T01:54:46.463Z,3.73
2019-03-10T01:57:14.907Z,1.67
2019-03-10T01:59:43.450Z,1.90
2019-03-10T02:02:11.946Z,2.47
2019-03-10T02:04:40.405Z,1.47
2019-03-10T02:07:08.892Z,3.43
2019-03-10T02:09:37.340Z,1.50
2019-03-10T02:12:05.789Z,1.63
2019-03-10T02:14:34.332Z,2.07
2019-03-10T02:17:02.816Z,1.40
2019-03-10T02:19:31.278Z,3.27
2019-03-10T02:21:59.766Z,1.57
2019-03-10T02:24:28.214Z,2.90
2019-03-10T02:26:56.663Z,2.70
2019-03-10T02:29:25.220Z,4.40
2019-03-10T02:31:53.820Z,1.83
2019-03-10T02:34:22.249Z,2.43
2019-03-10T02:36:50.767Z,1.70
2019-03-10T02:39:19.218Z,2.70
2019-03-10T02:41:47.629Z,2.67
2019-03-10T02:44:16.116Z,4.80
2019-03-10T02:46:44.569Z,1.50
2019-03-10T02:49:13.023Z,3.40
2019-03-10T02:51:41.502Z,1.47
2019-03-10T02:54:10.036Z,1.57
2019-03-10T02:56:38.507Z,2.63
2019-03-10T02:59:08.452Z,2.10
2019-03-10T03:01:39.760Z,1.60
2019-03-10T03:04:10.492Z,3.67
2019-03-10T03:06:40.924Z,1.73
2019-03-10T03:09:09.828Z,3.57
2019-03-10T03:11:38.719Z,1.20
2019-03-10T03:14:07.615Z,2.10
2019-03-10T03:16:36.570Z,2.10
2019-03-10T03:19:05.503Z,1.63
2019-03-10T03:21:43.101Z,6.60
2019-03-10T03:24:04.916Z,4.50
2019-03-10T03:26:33.728Z,2.13
2019-03-10T03:29:02.697Z,4.10
2019-03-10T03:31:31.682Z,2.17
2019-03-10T03:34:01.139Z,2.40
2019-03-10T03:36:32.353Z,5.43
2019-03-10T03:39:10.085Z,1.53
2019-03-10T03:41:39.028Z,3.23
2019-03-10T03:44:07.941Z,1.70
2019-03-10T03:46:36.918Z,2.17
2019-03-10T03:49:05.793Z,2.50
2019-03-10T03:51:34.693Z,3.30
2019-03-10T03:54:03.691Z,1.53
2019-03-10T03:56:32.587Z,3.57
2019-03-10T03:59:01.472Z,2.63
2019-03-10T04:01:47.321Z,3.37
2019-03-10T04:04:16.252Z,2.40
2019-03-10T04:06:45.139Z,2.70
2019-03-10T04:09:14.032Z,2.93
2019-03-10T04:11:43.025Z,1.67
2019-03-10T04:14:11.921Z,3.57
2019-03-10T04:16:40.806Z,2.50
2019-03-10T04:19:09.693Z,4.37
2019-03-10T04:21:38.580Z,1.90
2019-03-10T04:24:07.485Z,4.03
2019-03-10T04:26:36.357Z,1.50
2019-03-10T04:29:05.259Z,2.30
2019-03-10T04:31:34.149Z,3.87
2019-03-10T04:34:03.144Z,5.63
2019-03-10T04:36:32.019Z,0.97
2019-03-10T04:39:00.924Z,3.83
2019-03-10T04:41:29.814Z,7.07
2019-03-10T04:43:58.677Z,1.53
2019-03-10T04:46:27.605Z,1.27
2019-03-10T04:48:56.590Z,1.70
2019-03-10T04:51:25.480Z,2.20
2019-03-10T04:53:54.371Z,2.40
2019-03-10T04:56:24.900Z,3.40
2019-03-10T04:58:53.894Z,8.03
2019-03-10T05:01:22.786Z,3.13
2019-03-10T05:03:51.266Z,3.27
2019-03-10T05:06:19.698Z,2.57
2019-03-10T05:08:48.156Z,2.13
2019-03-10T05:11:16.602Z,5.47
2019-03-10T05:13:45.088Z,2.70
2019-03-10T05:16:13.569Z,3.03
2019-03-10T05:19:01.314Z,5.60
2019-03-10T05:21:29.758Z,2.30
2019-03-10T05:23:59.699Z,4.20
2019-03-10T05:26:28.192Z,3.13
2019-03-10T05:28:56.662Z,4.80
2019-03-10T05:31:25.090Z,2.50
2019-03-10T05:33:53.622Z,3.20
2019-03-10T05:36:22.158Z,3.53
2019-03-10T05:38:50.687Z,3.70
2019-03-10T05:41:19.180Z,2.33
2019-03-10T05:43:47.649Z,3.93
2019-03-10T05:46:16.075Z,6.37
2019-03-10T05:48:44.559Z,2.13
2019-03-10T05:51:13.006Z,3.87
2019-03-10T05:53:41.454Z,2.67
2019-03-10T05:56:09.942Z,2.73
2019-03-10T05:58:38.394Z,7.03
2019-03-10T06:01:06.896Z,4.63
2019-03-10T06:03:35.351Z,4.80
2019-03-10T06:06:03.796Z,19.40
2019-03-10T06:08:32.315Z,10.83
2019-03-10T06:11:00.840Z,15.10
2019-03-10T06:13:29.321Z,4.30
2019-03-10T06:15:57.843Z,3.17
2019-03-10T06:18:26.264Z,3.87
2019-03-10T06:20:54.712Z,3.00
2019-03-10T06:23:23.199Z,3.47
2019-03-10T06:25:51.648Z,4.27
2019-03-10T06:28:20.209Z,3.17
2019-03-10T06:30:49.085Z,4.50
2019-03-10T06:33:17.992Z,3.57
2019-03-10T06:35:46.982Z,3.73
2019-03-10T06:38:15.874Z,3.67
2019-03-10T06:40:44.766Z,3.60
2019-03-10T06:43:13.759Z,5.53
2019-03-10T06:45:42.754Z,3.70
2019-03-10T06:48:11.574Z,4.57
2019-03-10T06:50:40.425Z,6.23
2019-03-10T06:53:09.424Z,4.90
2019-03-10T06:55:38.318Z,2.60
2019-03-10T06:58:07.207Z,4.43
2019-03-10T07:00:36.096Z,6.23
2019-03-10T07:03:04.989Z,1.70
2019-03-10T07:05:33.980Z,3.40
2019-03-10T07:08:02.873Z,5.43
2019-03-10T07:10:31.761Z,3.67
2019-03-10T07:13:00.668Z,4.53
2019-03-10T07:15:29.544Z,3.97
2019-03-10T07:17:58.435Z,5.60
2019-03-10T07:20:27.430Z,4.53
2019-03-10T07:22:56.286Z,6.50
2019-03-10T07:25:25.208Z,4.97
2019-03-10T07:28:04.548Z,3.23
2019-03-10T07:30:35.074Z,3.77
2019-03-10T07:33:23.727Z,4.13
2019-03-10T07:36:10.948Z,7.20
2019-03-10T07:38:57.861Z,2.00
2019-03-10T07:41:34.127Z,2.67
2019-03-10T07:44:07.113Z,3.80
2019-03-10T07:46:49.826Z,4.67
2019-03-10T07:49:23.018Z,4.47
2019-03-10T07:51:59.591Z,2.83
2019-03-10T07:54:39.129Z,4.03
2019-03-10T07:57:18.876Z,9.50
2019-03-10T07:59:49.239Z,5.33
2019-03-10T08:02:25.770Z,4.10
2019-03-10T08:05:02.087Z,5.10
2019-03-10T08:07:48.025Z,9.10
2019-03-10T08:10:18.395Z,5.83
2019-03-10T08:12:51.337Z,4.77
2019-03-10T08:15:21.866Z,2.80
2019-03-10T08:17:58.232Z,3.13
2019-03-10T08:20:28.769Z,4.10
2019-03-10T08:23:11.682Z,3.33
2019-03-10T08:25:47.947Z,11.53
2019-03-10T08:28:30.250Z,5.43
2019-03-10T08:31:03.446Z,4.70
2019-03-10T08:36:29.299Z,7.03
2019-03-10T08:39:16.384Z,5.90
2019-03-10T08:41:47.235Z,5.87
2019-03-10T08:44:23.500Z,4.20
2019-03-10T08:46:56.793Z,3.90
2019-03-10T08:49:33.060Z,5.03
2019-03-10T08:52:12.805Z,6.57
2019-03-10T08:54:45.789Z,3.97
2019-03-10T08:57:16.163Z,6.93
2019-03-10T09:00:02.925Z,4.37
2019-03-10T09:02:45.741Z,3.53
2019-03-10T09:05:16.270Z,4.77
2019-03-10T09:07:53.046Z,4.23
2019-03-10T09:10:32.768Z,5.50
2019-03-10T09:13:03.191Z,3.93
2019-03-10T09:15:33.747Z,4.23
2019-03-10T09:18:13.062Z,5.07
2019-03-10T09:20:52.597Z,7.30
2019-03-10T09:23:41.487Z,7.93
2019-03-10T09:26:12.018Z,5.27
2019-03-10T09:28:58.794Z,4.57
2019-03-10T09:31:41.848Z,9.47
2019-03-10T09:34:24.815Z,8.97
2019-03-10T09:36:58.663Z,3.73
2019-03-10T09:39:29.520Z,5.50
2019-03-10T09:42:00.407Z,4.47
2019-03-10T09:44:40.376Z,5.23
2019-03-10T09:47:11.576Z,5.77
2019-03-10T09:49:51.999Z,5.33
2019-03-10T09:52:28.136Z,5.80
2019-03-10T09:55:01.043Z,6.30
2019-03-10T09:57:38.972Z,9.07
2019-03-10T10:00:15.138Z,6.53
2019-03-10T10:03:02.393Z,6.93
2019-03-10T10:05:36.185Z,8.50
2019-03-10T10:08:07.513Z,8.37
2019-03-10T10:10:44.475Z,12.83
2019-03-10T10:13:27.503Z,10.10
2019-03-10T10:16:10.477Z,13.47
2019-03-10T10:18:53.389Z,14.33
2019-03-10T10:21:33.471Z,8.47
2019-03-10T10:24:07.497Z,10.33
2019-03-10T10:26:41.564Z,8.63
2019-03-10T10:29:17.078Z,7.00
2019-03-10T10:31:50.801Z,12.27
2019-03-10T10:34:24.627Z,7.27
2019-03-10T10:36:55.635Z,7.87
2019-03-10T10:39:41.751Z,7.63
2019-03-10T10:42:15.484Z,6.60
2019-03-10T10:44:55.428Z,9.13
2019-03-10T10:47:26.347Z,6.73
2019-03-10T10:50:09.556Z,6.43
2019-03-10T10:52:43.559Z,8.90
2019-03-10T10:55:17.312Z,6.50
2019-03-10T10:58:00.219Z,7.37
2019-03-10T11:00:37.428Z,21.43
2019-03-10T11:03:12.219Z,14.77
2019-03-10T11:06:01.275Z,8.83
2019-03-10T11:08:43.963Z,7.37
2019-03-10T11:11:31.440Z,10.80
2019-03-10T11:14:18.360Z,7.30
2019-03-10T11:16:49.548Z,8.23
2019-03-10T11:19:36.779Z,7.47
2019-03-10T11:22:07.437Z,8.53
2019-03-10T11:24:41.493Z,10.27
2019-03-10T11:27:11.948Z,11.60
2019-03-10T11:29:45.339Z,9.33
2019-03-10T11:32:15.760Z,8.20
2019-03-10T11:34:46.207Z,9.03
2019-03-10T11:37:16.626Z,12.57
2019-03-10T11:39:53.052Z,9.87
2019-03-10T11:42:28.907Z,16.70
2019-03-10T11:45:17.607Z,10.07
2019-03-10T11:47:53.996Z,9.23
2019-03-10T11:50:24.440Z,7.70
2019-03-10T11:52:57.723Z,11.70
2019-03-10T11:55:40.164Z,8.53
2019-03-10T11:58:13.622Z,6.60
2019-03-10T12:00:44.032Z,10.60
2019-03-10T12:03:14.441Z,8.50
2019-03-10T12:06:02.923Z,6.47
2019-03-10T12:08:45.276Z,8.83
2019-03-10T12:11:15.460Z,10.40
2019-03-10T12:13:44.344Z,7.33
2019-03-10T12:16:13.200Z,10.97
2019-03-10T12:18:42.053Z,19.00
2019-03-10T12:21:10.935Z,13.60
2019-03-10T12:23:39.776Z,8.70
2019-03-10T12:26:08.625Z,7.67
2019-03-10T12:28:37.512Z,12.20
2019-03-10T12:31:06.363Z,12.13
2019-03-10T12:33:35.200Z,12.20
2019-03-10T12:36:04.092Z,10.73
2019-03-10T12:38:32.937Z,13.00
2019-03-10T12:41:01.778Z,10.77
2019-03-10T12:43:30.654Z,9.70
2019-03-10T12:45:59.505Z,7.93
2019-03-10T12:48:28.339Z,9.23
2019-03-10T12:50:57.213Z,8.37
2019-03-10T12:53:26.057Z,7.80
2019-03-10T12:55:54.898Z,6.93
2019-03-10T12:58:23.778Z,6.30
2019-03-10T13:00:52.626Z,1.47
2019-03-10T13:03:21.459Z,1.07
2019-03-10T13:05:49.941Z,0.70
2019-03-10T13:08:18.777Z,0.90
2019-03-10T13:10:47.708Z,0.60
2019-03-10T13:13:16.619Z,0.50
2019-03-10T13:15:45.455Z,1.60
2019-03-10T13:18:14.491Z,0.97
2019-03-10T13:20:43.431Z,0.47
2019-03-10T13:23:12.270Z,1.27
2019-03-10T13:25:41.322Z,0.50
2019-03-10T13:28:10.596Z,0.40
2019-03-10T13:30:39.537Z,0.70
2019-03-10T13:33:08.416Z,0.30
2019-03-10T13:35:37.248Z,0.40
2019-03-10T13:38:05.727Z,0.40
2019-03-10T13:40:34.330Z,0.53
2019-03-10T13:43:02.807Z,0.80
2019-03-10T13:45:31.717Z,0.50
2019-03-10T13:48:00.653Z,0.30
2019-03-10T13:50:29.583Z,0.30
2019-03-10T13:52:58.596Z,0.60
2019-03-10T13:55:27.616Z,0.43
2019-03-10T13:57:56.485Z,0.40
2019-03-10T14:00:26.125Z,2.53
2019-03-10T14:02:55.057Z,0.40
2019-03-10T14:05:23.931Z,1.27
2019-03-10T14:07:52.911Z,0.53
2019-03-10T14:10:21.776Z,0.30
2019-03-10T14:12:50.649Z,1.23
2019-03-10T14:15:21.231Z,0.43
2019-03-10T14:17:50.104Z,0.80
2019-03-10T14:20:18.945Z,0.40
2019-03-10T14:22:47.946Z,0.40
2019-03-10T14:25:17.152Z,0.50
2019-03-10T14:27:45.989Z,0.47
2019-03-10T14:30:19.959Z,1.27
2019-03-10T14:32:48.873Z,0.60
2019-03-10T14:35:17.280Z,0.63
2019-03-10T14:37:45.723Z,0.60
2019-03-10T14:40:16.569Z,0.60
2019-03-10T14:42:45.026Z,0.60
2019-03-10T14:45:15.164Z,0.60
2019-03-10T14:47:43.700Z,0.40
2019-03-10T14:50:13.730Z,0.50
2019-03-10T14:52:43.235Z,0.50
2019-03-10T14:55:17.864Z,0.40
2019-03-10T14:57:46.753Z,0.30
2019-03-10T15:00:23.633Z,0.37
2019-03-10T15:02:52.725Z,0.40
2019-03-10T15:05:21.819Z,0.40
2019-03-10T15:07:51.475Z,0.40
2019-03-10T15:10:20.440Z,0.30
2019-03-10T15:12:49.517Z,0.40
2019-03-10T15:15:23.407Z,0.40
2019-03-10T15:17:53.049Z,0.30
2019-03-10T15:20:22.075Z,0.40
2019-03-10T15:22:51.633Z,0.30
2019-03-10T15:25:25.247Z,0.53
2019-03-10T15:27:54.347Z,0.50
2019-03-10T15:30:24.504Z,0.57
2019-03-10T15:32:53.398Z,0.40
2019-03-10T15:35:22.232Z,0.40
2019-03-10T15:37:51.087Z,0.50
2019-03-10T15:40:20.056Z,0.30
2019-03-10T15:42:48.594Z,1.70
2019-03-10T15:45:17.355Z,1.47
2019-03-10T15:47:46.321Z,0.30
2019-03-10T15:50:23.573Z,0.40
2019-03-10T15:52:52.435Z,0.60
2019-03-10T15:55:21.296Z,0.50
2019-03-10T15:57:50.887Z,0.30
2019-03-10T16:00:23.185Z,1.00
2019-03-10T16:02:52.721Z,0.50
2019-03-10T16:05:21.564Z,0.50
2019-03-10T16:07:50.444Z,0.47
2019-03-10T16:10:19.388Z,0.47
2019-03-10T16:12:49.472Z,0.40
2019-03-10T16:15:20.788Z,1.47
2019-03-10T16:17:49.635Z,0.50
2019-03-10T16:20:18.477Z,0.50
2019-03-10T16:22:47.357Z,0.30
2019-03-10T16:25:17.218Z,0.67
2019-03-10T16:27:46.245Z,0.70
2019-03-10T16:30:30.203Z,0.40
2019-03-10T16:32:59.080Z,0.63
2019-03-10T16:35:27.973Z,0.40
2019-03-10T16:37:56.804Z,1.03
2019-03-10T16:40:25.704Z,0.70
2019-03-10T16:42:54.629Z,1.10
2019-03-10T16:45:29.653Z,1.00
2019-03-10T16:47:58.497Z,0.80
2019-03-10T16:50:28.077Z,0.60
2019-03-10T16:52:56.921Z,0.80
2019-03-10T16:55:25.763Z,0.50
2019-03-10T16:57:54.641Z,0.50
2019-03-10T17:00:23.481Z,0.53
2019-03-10T17:02:53.017Z,0.70
2019-03-10T17:05:24.584Z,0.53
2019-03-10T17:07:53.526Z,0.50
2019-03-10T17:10:26.638Z,2.00
2019-03-10T17:12:55.831Z,1.50
2019-03-10T17:15:25.575Z,0.40
2019-03-10T17:17:54.614Z,0.57
2019-03-10T17:20:23.497Z,0.70
2019-03-10T17:22:52.341Z,1.17
2019-03-10T17:25:21.217Z,0.50
2019-03-10T17:27:50.092Z,0.43
2019-03-10T17:30:20.899Z,0.77
2019-03-10T17:32:49.841Z,0.50
2019-03-10T17:35:19.417Z,0.50
2019-03-10T17:37:48.989Z,1.00
2019-03-10T17:40:22.730Z,1.90
2019-03-10T17:42:51.614Z,0.40
2019-03-10T17:45:22.215Z,2.20
2019-03-10T17:47:51.061Z,3.50
2019-03-10T17:50:20.157Z,0.50
2019-03-10T17:52:49.697Z,1.33
2019-03-10T17:55:20.605Z,1.53
2019-03-10T17:57:49.475Z,0.30
2019-03-10T18:00:38.983Z,0.47
2019-03-10T18:03:07.860Z,0.40
2019-03-10T18:05:36.740Z,0.40
2019-03-10T18:08:05.581Z,0.83
2019-03-10T18:10:34.418Z,0.50
2019-03-10T18:13:03.302Z,0.80
2019-03-10T18:15:32.345Z,0.63
2019-03-10T18:18:01.238Z,0.97
2019-03-10T18:20:30.073Z,0.40
2019-03-10T18:22:58.920Z,0.80
2019-03-10T18:25:27.797Z,0.50
2019-03-10T18:27:56.698Z,0.83
2019-03-10T18:30:28.866Z,0.77
2019-03-10T18:32:57.860Z,1.70
2019-03-10T18:35:26.773Z,0.70
2019-03-10T18:37:55.641Z,7.23
2019-03-10T18:40:27.400Z,1.05
2019-03-10T18:42:56.327Z,0.60
2019-03-10T18:45:25.160Z,0.67
2019-03-10T18:47:54.046Z,0.93
2019-03-10T18:50:28.088Z,0.70
2019-03-10T18:52:56.957Z,0.93
2019-03-10T18:55:25.904Z,0.90
2019-03-10T18:57:54.821Z,1.70
2019-03-10T19:00:27.754Z,1.00
2019-03-10T19:02:56.596Z,1.27
2019-03-10T19:05:25.581Z,0.60
2019-03-10T19:07:54.466Z,1.27
2019-03-10T19:10:23.318Z,0.60
2019-03-10T19:12:52.160Z,0.80
2019-03-10T19:15:23.014Z,0.60
2019-03-10T19:17:51.890Z,1.43
2019-03-10T19:20:20.756Z,1.10
2019-03-10T19:22:49.637Z,1.37
2019-03-10T19:25:18.479Z,1.17
2019-03-10T19:27:47.383Z,1.60
2019-03-10T19:30:20.371Z,1.50
2019-03-10T19:32:49.920Z,0.50
2019-03-10T19:35:18.867Z,0.93
2019-03-10T19:37:47.862Z,0.80
2019-03-10T19:40:18.493Z,0.50
2019-03-10T19:42:47.375Z,0.73
2019-03-10T19:45:21.804Z,1.00
2019-03-10T19:47:50.689Z,0.90
2019-03-10T19:50:32.228Z,2.40
2019-03-10T19:53:01.123Z,2.33
2019-03-10T19:55:30.086Z,1.13
2019-03-10T19:57:59.058Z,1.87
2019-03-10T20:00:28.051Z,1.50
2019-03-10T20:02:56.942Z,2.40
2019-03-10T20:05:25.836Z,4.47
2019-03-10T20:07:54.831Z,2.50
2019-03-10T20:10:24.853Z,0.93
2019-03-10T20:12:53.941Z,2.60
2019-03-10T20:15:25.496Z,1.80
2019-03-10T20:17:54.469Z,1.90
2019-03-10T20:20:36.272Z,3.60
2019-03-10T20:23:05.274Z,1.63
2019-03-10T20:25:34.265Z,2.73
2019-03-10T20:28:03.259Z,0.80
2019-03-10T20:30:32.150Z,1.03
2019-03-10T20:33:01.157Z,2.80
2019-03-10T20:35:30.136Z,2.30
2019-03-10T20:37:59.154Z,3.30
2019-03-10T20:40:29.197Z,2.80
2019-03-10T20:42:58.079Z,6.83
2019-03-10T20:45:26.923Z,1.50
2019-03-10T20:47:56.826Z,1.67
2019-03-10T20:50:25.856Z,2.37
2019-03-10T20:52:54.736Z,3.40
2019-03-10T20:55:23.576Z,1.87
2019-03-10T20:57:52.919Z,4.25
2019-03-10T21:00:27.749Z,3.87
2019-03-10T21:02:56.639Z,3.87
2019-03-10T21:05:25.531Z,3.03
2019-03-10T21:07:54.524Z,5.53
2019-03-10T21:10:28.048Z,3.77
2019-03-10T21:12:57.322Z,2.93
2019-03-10T21:15:27.135Z,2.50
2019-03-10T21:17:56.030Z,3.60
2019-03-10T21:20:26.560Z,4.10
2019-03-10T21:22:56.475Z,3.07
2019-03-10T21:25:29.093Z,3.70
2019-03-10T21:27:58.053Z,1.93
2019-03-10T21:33:45.896Z,2.73
2019-03-10T21:36:15.504Z,5.10
2019-03-10T21:38:44.394Z,4.33
2019-03-10T21:41:14.397Z,6.97
2019-03-10T21:43:43.832Z,2.67
2019-03-10T21:46:12.807Z,3.47
2019-03-10T21:48:41.800Z,1.47
2019-03-10T21:51:10.691Z,3.20
2019-03-10T21:53:39.582Z,4.53
2019-03-10T21:56:08.574Z,5.23
2019-03-10T21:58:37.513Z,6.30
2019-03-10T22:01:06.459Z,5.23
2019-03-10T22:03:35.453Z,3.30
2019-03-10T22:06:04.450Z,3.20
2019-03-10T22:08:33.438Z,1.80
2019-03-10T22:11:02.328Z,4.53
2019-03-10T22:13:31.219Z,4.40
2019-03-10T22:16:00.110Z,5.63
2019-03-10T22:18:29.103Z,3.90
2019-03-10T22:20:57.994Z,3.67
2019-03-10T22:23:26.885Z,2.53
2019-03-10T22:25:55.878Z,3.10
2019-03-10T22:28:24.769Z,8.03
2019-03-10T22:30:53.659Z,3.27
2019-03-10T22:33:22.550Z,5.20
2019-03-10T22:35:51.449Z,7.20
2019-03-10T22:38:20.332Z,5.73
2019-03-10T22:40:49.223Z,3.00
2019-03-10T22:43:18.108Z,3.30
2019-03-10T22:45:47.107Z,6.23
2019-03-10T22:48:15.998Z,5.73
2019-03-10T22:50:44.991Z,6.17
2019-03-10T22:53:13.985Z,4.50
2019-03-10T22:55:42.883Z,2.67
2019-03-10T22:58:11.766Z,6.13
2019-03-10T23:00:48.439Z,4.13
2019-03-10T23:03:17.329Z,4.00
2019-03-10T23:05:46.322Z,5.30
2019-03-10T23:08:15.319Z,3.23
2019-03-10T23:10:44.206Z,5.47
2019-03-10T23:13:13.098Z,2.73
2019-03-10T23:15:41.987Z,3.63
2019-03-10T23:18:10.879Z,5.20
2019-03-10T23:20:39.769Z,4.83
2019-03-10T23:23:08.663Z,5.93
2019-03-10T23:25:37.554Z,5.50
2019-03-10T23:28:07.978Z,6.80
2019-03-10T23:30:36.869Z,9.13
2019-03-10T23:33:05.773Z,3.13
2019-03-10T23:35:34.648Z,3.07
2019-03-10T23:38:03.094Z,4.60
2019-03-10T23:40:32.021Z,4.37
2019-03-10T23:43:00.913Z,4.57
2019-03-10T23:45:29.808Z,3.23
2019-03-10T23:47:58.694Z,3.13
2019-03-10T23:50:27.585Z,2.40
2019-03-10T23:52:56.476Z,6.50
2019-03-10T23:55:25.367Z,3.27
2019-03-10T23:57:54.359Z,3.63
